createdAt,value
2017-07-16T00:02:16.116Z,68.43
2017-07-16T00:04:43.513Z,69.13
2017-07-16T00:07:10.909Z,69.44
2017-07-16T00:09:38.303Z,69.71
2017-07-16T00:12:05.696Z,69.77
2017-07-16T00:14:33.098Z,69.23
2017-07-16T00:17:00.500Z,69.31
2017-07-16T00:19:27.885Z,69.34
2017-07-16T00:21:55.279Z,69.03
2017-07-16T00:24:22.663Z,69.22
2017-07-16T00:26:50.074Z,69.46
2017-07-16T00:29:17.460Z,69.14
2017-07-16T00:31:44.851Z,68.71
2017-07-16T00:34:12.244Z,68.55
2017-07-16T00:36:40.252Z,68.46
2017-07-16T00:39:07.645Z,68.32
2017-07-16T00:41:35.047Z,69.08
2017-07-16T00:44:02.643Z,69.33
2017-07-16T00:46:30.266Z,69.25
2017-07-16T00:48:57.651Z,69.16
2017-07-16T00:51:25.056Z,69.33
2017-07-16T00:53:52.449Z,68.99
2017-07-16T00:56:19.836Z,68.73
2017-07-16T00:58:47.454Z,68.58
2017-07-16T01:01:14.839Z,68.54
2017-07-16T01:03:42.239Z,69.19
2017-07-16T01:06:09.631Z,68.92
2017-07-16T01:08:37.036Z,68.96
2017-07-16T01:11:04.423Z,68.84
2017-07-16T01:13:31.816Z,69.28
2017-07-16T01:15:59.199Z,68.98
2017-07-16T01:18:26.611Z,68.87
2017-07-16T01:20:53.988Z,68.47
2017-07-16T01:23:21.378Z,68.52
2017-07-16T01:25:48.770Z,68.17
2017-07-16T01:28:16.391Z,68.30
2017-07-16T01:30:43.779Z,68.90
2017-07-16T01:33:11.388Z,68.45
2017-07-16T01:35:38.777Z,68.83
2017-07-16T01:38:06.179Z,68.90
2017-07-16T01:40:33.575Z,69.49
2017-07-16T01:43:00.966Z,70.36
2017-07-16T01:45:28.407Z,70.41
2017-07-16T01:47:55.799Z,69.68
2017-07-16T01:50:23.191Z,69.46
2017-07-16T01:52:50.584Z,69.77
2017-07-16T01:55:17.980Z,68.80
2017-07-16T01:57:45.376Z,68.23
2017-07-16T02:00:12.767Z,67.85
2017-07-16T02:02:40.199Z,67.88
2017-07-16T02:05:07.588Z,67.84
2017-07-16T02:07:34.989Z,67.77
2017-07-16T02:10:02.379Z,68.29
2017-07-16T02:12:29.776Z,68.28
2017-07-16T02:14:57.167Z,67.91
2017-07-16T02:17:24.558Z,67.96
2017-07-16T02:19:51.963Z,68.10
2017-07-16T02:22:19.350Z,67.93
2017-07-16T02:24:46.748Z,68.20
2017-07-16T02:27:14.126Z,67.55
2017-07-16T02:29:41.515Z,67.60
2017-07-16T02:32:08.908Z,67.15
2017-07-16T02:34:36.298Z,67.50
2017-07-16T02:37:03.690Z,67.12
2017-07-16T02:39:31.307Z,67.14
2017-07-16T02:41:58.700Z,66.99
2017-07-16T02:44:26.100Z,67.06
2017-07-16T02:46:53.485Z,67.63
2017-07-16T02:49:20.885Z,67.62
2017-07-16T02:51:48.278Z,67.62
2017-07-16T02:54:15.674Z,67.77
2017-07-16T02:56:43.059Z,67.78
2017-07-16T02:59:10.475Z,67.98
2017-07-16T03:01:38.076Z,68.04
2017-07-16T03:04:05.472Z,67.73
2017-07-16T03:06:32.871Z,67.40
2017-07-16T03:09:00.266Z,67.66
2017-07-16T03:11:27.656Z,67.35
2017-07-16T03:13:55.052Z,67.31
2017-07-16T03:16:22.448Z,67.59
2017-07-16T03:18:49.836Z,68.28
2017-07-16T03:21:17.235Z,67.94
2017-07-16T03:23:44.622Z,68.08
2017-07-16T03:26:12.017Z,68.34
2017-07-16T03:28:39.409Z,68.31
2017-07-16T03:31:06.795Z,68.34
2017-07-16T03:33:34.192Z,68.90
2017-07-16T03:36:01.583Z,69.06
2017-07-16T03:38:28.976Z,69.04
2017-07-16T03:40:56.360Z,69.65
2017-07-16T03:43:23.760Z,70.20
2017-07-16T03:45:51.160Z,71.01
2017-07-16T03:48:18.552Z,70.99
2017-07-16T03:50:45.944Z,70.95
2017-07-16T03:53:13.333Z,70.83
2017-07-16T03:55:40.723Z,70.93
2017-07-16T03:58:08.116Z,70.99
2017-07-16T04:00:35.517Z,70.17
2017-07-16T04:03:02.899Z,69.88
2017-07-16T04:05:30.296Z,69.57
2017-07-16T04:07:57.680Z,68.98
2017-07-16T04:10:25.079Z,68.58
2017-07-16T04:12:52.476Z,68.22
2017-07-16T04:15:19.869Z,68.33
2017-07-16T04:17:47.267Z,67.96
2017-07-16T04:20:14.660Z,68.13
2017-07-16T04:22:42.067Z,67.56
2017-07-16T04:25:09.460Z,67.38
2017-07-16T04:27:36.859Z,67.52
2017-07-16T04:30:04.258Z,67.71
2017-07-16T04:32:31.648Z,68.03
2017-07-16T04:34:59.049Z,67.95
2017-07-16T04:37:26.443Z,67.95
2017-07-16T04:39:53.848Z,67.51
2017-07-16T04:42:21.245Z,67.31
2017-07-16T04:44:48.629Z,67.37
2017-07-16T04:47:16.027Z,67.40
2017-07-16T04:49:43.412Z,67.79
2017-07-16T04:52:10.825Z,67.91
2017-07-16T04:54:38.224Z,68.84
2017-07-16T04:57:05.662Z,70.10
2017-07-16T04:59:33.048Z,70.54
2017-07-16T05:02:00.452Z,70.50
2017-07-16T05:04:28.052Z,70.79
2017-07-16T05:06:55.443Z,71.34
2017-07-16T05:09:22.837Z,71.19
2017-07-16T05:11:50.226Z,71.07
2017-07-16T05:14:17.619Z,70.77
2017-07-16T05:16:45.732Z,70.16
2017-07-16T05:19:13.331Z,70.03
2017-07-16T05:21:40.740Z,69.60
2017-07-16T05:24:08.127Z,69.51
2017-07-16T05:26:35.739Z,69.74
2017-07-16T05:29:03.128Z,69.67
2017-07-16T05:31:30.544Z,69.77
2017-07-16T05:33:57.935Z,70.00
2017-07-16T05:36:25.343Z,70.07
2017-07-16T05:38:52.744Z,70.06
2017-07-16T05:41:20.137Z,69.82
2017-07-16T05:43:47.524Z,69.65
2017-07-16T05:46:14.924Z,69.75
2017-07-16T05:57:20.516Z,69.17
2017-07-16T05:59:47.912Z,68.84
2017-07-16T06:02:15.305Z,68.82
2017-07-16T06:04:42.692Z,68.88
2017-07-16T06:07:10.084Z,68.70
2017-07-16T06:09:37.474Z,68.66
2017-07-16T06:12:04.871Z,68.68
2017-07-16T06:14:32.268Z,68.39
2017-07-16T06:16:59.657Z,67.90
2017-07-16T06:19:27.055Z,67.70
2017-07-16T06:21:54.459Z,67.56
2017-07-16T06:24:21.842Z,67.39
2017-07-16T06:26:49.245Z,66.46
2017-07-16T06:29:16.632Z,65.89
2017-07-16T06:31:44.023Z,66.02
2017-07-16T06:34:11.416Z,65.98
2017-07-16T06:36:38.813Z,65.46
2017-07-16T06:39:06.204Z,65.62
2017-07-16T06:41:33.592Z,65.23
2017-07-16T06:44:00.983Z,65.94
2017-07-16T06:46:28.400Z,65.57
2017-07-16T06:48:55.806Z,65.30
2017-07-16T06:51:23.195Z,65.29
2017-07-16T06:53:50.604Z,66.19
2017-07-16T06:56:18.001Z,66.21
2017-07-16T06:58:45.395Z,65.33
2017-07-16T07:01:12.999Z,65.16
2017-07-16T07:03:40.612Z,65.58
2017-07-16T07:06:07.994Z,65.84
2017-07-16T07:08:35.390Z,65.70
2017-07-16T07:11:02.771Z,65.86
2017-07-16T07:13:30.171Z,66.03
2017-07-16T07:15:57.557Z,65.98
2017-07-16T07:18:24.956Z,65.52
2017-07-16T07:20:52.386Z,65.26
2017-07-16T07:23:19.742Z,65.09
2017-07-16T07:25:47.135Z,64.78
2017-07-16T07:28:14.532Z,64.65
2017-07-16T07:30:41.932Z,65.43
2017-07-16T07:33:09.332Z,65.23
2017-07-16T07:35:36.718Z,65.65
2017-07-16T07:38:04.127Z,65.89
2017-07-16T07:40:31.520Z,66.06
2017-07-16T07:42:58.920Z,66.76
2017-07-16T07:45:26.312Z,66.98
2017-07-16T07:47:53.700Z,67.27
2017-07-16T07:50:21.102Z,67.58
2017-07-16T07:52:48.480Z,66.98
2017-07-16T07:55:15.875Z,68.04
2017-07-16T07:57:43.260Z,68.67
2017-07-16T08:00:10.656Z,68.98
2017-07-16T08:02:38.051Z,68.35
2017-07-16T08:05:05.455Z,67.71
2017-07-16T08:07:32.843Z,69.10
2017-07-16T08:10:00.253Z,69.13
2017-07-16T08:12:27.631Z,68.80
2017-07-16T08:14:55.043Z,69.37
2017-07-16T08:17:22.435Z,70.19
2017-07-16T08:19:49.834Z,69.34
2017-07-16T08:22:17.222Z,69.08
2017-07-16T08:24:44.616Z,69.37
2017-07-16T08:27:12.043Z,69.33
2017-07-16T08:29:39.421Z,69.25
2017-07-16T08:32:06.815Z,68.01
2017-07-16T08:34:34.216Z,67.71
2017-07-16T08:37:01.620Z,67.46
2017-07-16T08:39:29.009Z,66.42
2017-07-16T08:41:56.397Z,67.47
2017-07-16T08:44:23.797Z,68.34
2017-07-16T08:46:51.191Z,69.41
2017-07-16T08:49:18.583Z,69.60
2017-07-16T08:51:45.976Z,68.84
2017-07-16T08:54:13.376Z,68.35
2017-07-16T08:56:41.103Z,67.48
2017-07-16T08:59:08.490Z,66.98
2017-07-16T09:01:36.107Z,67.22
2017-07-16T09:04:03.491Z,67.40
2017-07-16T09:06:30.891Z,66.83
2017-07-16T09:08:58.283Z,65.88
2017-07-16T09:11:25.691Z,65.88
2017-07-16T09:13:53.079Z,65.90
2017-07-16T09:16:20.472Z,65.86
2017-07-16T09:18:47.864Z,66.56
2017-07-16T09:21:15.260Z,66.62
2017-07-16T09:23:42.658Z,65.92
2017-07-16T09:26:10.058Z,65.49
2017-07-16T09:28:37.432Z,65.01
2017-07-16T09:31:04.841Z,65.42
2017-07-16T09:33:32.234Z,65.73
2017-07-16T09:35:59.642Z,65.91
2017-07-16T09:38:27.032Z,65.74
2017-07-16T09:40:54.428Z,65.48
2017-07-16T09:43:21.815Z,65.24
2017-07-16T09:45:49.214Z,65.62
2017-07-16T09:48:16.612Z,65.45
2017-07-16T09:50:44.008Z,65.53
2017-07-16T09:53:11.408Z,65.94
2017-07-16T09:55:38.807Z,66.00
2017-07-16T09:58:06.200Z,66.18
2017-07-16T10:00:33.591Z,65.92
2017-07-16T10:03:00.983Z,65.10
2017-07-16T10:05:28.380Z,64.38
2017-07-16T10:07:55.781Z,64.67
2017-07-16T10:10:23.181Z,65.29
2017-07-16T10:12:50.577Z,65.51
2017-07-16T10:15:17.997Z,65.83
2017-07-16T10:17:45.383Z,66.83
2017-07-16T10:20:12.807Z,67.34
2017-07-16T10:22:40.235Z,68.15
2017-07-16T10:25:07.651Z,66.95
2017-07-16T10:27:35.062Z,67.64
2017-07-16T10:30:02.450Z,67.29
2017-07-16T10:32:29.855Z,67.00
2017-07-16T10:34:57.255Z,67.37
2017-07-16T10:37:24.657Z,68.37
2017-07-16T10:39:52.076Z,68.90
2017-07-16T10:42:19.476Z,69.39
2017-07-16T10:44:46.883Z,69.75
2017-07-16T10:47:14.285Z,69.77
2017-07-16T10:49:41.696Z,69.75
2017-07-16T10:52:09.093Z,69.49
2017-07-16T10:54:36.511Z,69.86
2017-07-16T10:57:03.903Z,70.01
2017-07-16T10:59:31.307Z,69.77
2017-07-16T11:01:58.711Z,70.61
2017-07-16T11:04:26.116Z,70.89
2017-07-16T11:06:53.516Z,71.75
2017-07-16T11:09:20.912Z,71.73
2017-07-16T11:11:48.316Z,71.22
2017-07-16T11:14:15.716Z,70.54
2017-07-16T11:16:43.120Z,70.39
2017-07-16T11:19:10.508Z,70.21
2017-07-16T11:21:37.902Z,69.32
2017-07-16T11:24:05.311Z,69.96
2017-07-16T11:26:32.716Z,70.24
2017-07-16T11:29:00.111Z,70.03
2017-07-16T11:31:27.538Z,69.51
2017-07-16T11:33:54.932Z,68.92
2017-07-16T11:36:22.334Z,69.44
2017-07-16T11:38:49.733Z,69.32
2017-07-16T11:41:17.130Z,69.42
2017-07-16T11:43:44.740Z,69.21
2017-07-16T11:46:12.143Z,69.15
2017-07-16T11:48:39.548Z,69.36
2017-07-16T11:51:06.958Z,69.28
2017-07-16T11:53:34.360Z,68.89
2017-07-16T11:56:01.876Z,69.07
2017-07-16T11:58:29.264Z,68.02
2017-07-16T12:00:56.676Z,67.82
2017-07-16T12:03:24.083Z,68.19
2017-07-16T12:05:51.484Z,68.05
2017-07-16T12:08:18.889Z,67.72
2017-07-16T12:10:46.351Z,66.92
2017-07-16T12:13:13.751Z,67.45
2017-07-16T12:15:41.159Z,66.84
2017-07-16T12:18:08.571Z,65.81
2017-07-16T12:20:36.183Z,65.87
2017-07-16T12:23:03.588Z,67.44
2017-07-16T12:25:30.984Z,68.68
2017-07-16T12:27:58.404Z,69.85
2017-07-16T12:30:25.791Z,69.66
2017-07-16T12:32:53.208Z,70.64
2017-07-16T12:35:20.820Z,72.06
2017-07-16T12:37:48.222Z,71.73
2017-07-16T12:40:15.616Z,72.25
2017-07-16T12:42:43.040Z,72.92
2017-07-16T12:45:10.439Z,74.14
2017-07-16T12:47:37.846Z,74.38
2017-07-16T12:50:05.246Z,74.36
2017-07-16T12:52:32.656Z,74.62
2017-07-16T12:55:00.052Z,74.72
2017-07-16T12:57:27.672Z,74.15
2017-07-16T12:59:55.967Z,73.08
2017-07-16T13:02:23.374Z,72.76
2017-07-16T13:04:50.791Z,73.01
2017-07-16T13:07:19.355Z,72.75
2017-07-16T13:09:46.761Z,73.92
2017-07-16T13:12:14.165Z,73.63
2017-07-16T13:14:41.561Z,73.58
2017-07-16T13:17:08.970Z,72.73
2017-07-16T13:19:37.151Z,73.43
2017-07-16T13:22:04.553Z,73.54
2017-07-16T13:24:31.962Z,73.66
2017-07-16T13:26:59.365Z,73.00
2017-07-16T13:29:26.774Z,73.18
2017-07-16T13:31:54.174Z,73.12
2017-07-16T13:34:21.571Z,73.57
2017-07-16T13:36:48.967Z,74.95
2017-07-16T13:39:16.380Z,73.10
2017-07-16T13:41:44.014Z,72.53
2017-07-16T13:44:11.387Z,72.93
2017-07-16T13:46:38.780Z,72.83
2017-07-16T13:49:06.187Z,73.27
2017-07-16T13:51:33.805Z,73.55
2017-07-16T13:54:01.211Z,72.19
2017-07-16T13:56:28.603Z,71.97
2017-07-16T13:58:56.007Z,71.40
2017-07-16T14:01:23.404Z,70.71
2017-07-16T14:03:50.831Z,70.20
2017-07-16T14:06:18.230Z,70.38
2017-07-16T14:08:45.633Z,71.20
2017-07-16T14:11:13.036Z,71.00
2017-07-16T14:13:40.446Z,70.99
2017-07-16T14:16:07.851Z,71.36
2017-07-16T14:18:35.251Z,71.50
2017-07-16T14:21:02.659Z,71.59
2017-07-16T14:23:30.055Z,70.82
2017-07-16T14:25:57.512Z,70.75
2017-07-16T14:28:24.908Z,70.94
2017-07-16T14:30:52.320Z,70.24
2017-07-16T14:33:19.715Z,70.37
2017-07-16T14:35:47.351Z,72.47
2017-07-16T14:38:14.959Z,72.10
2017-07-16T14:40:42.373Z,71.99
2017-07-16T14:43:09.768Z,71.31
2017-07-16T14:45:37.186Z,70.08
2017-07-16T14:48:04.579Z,70.42
2017-07-16T14:50:31.979Z,70.48
2017-07-16T14:52:59.377Z,70.54
2017-07-16T14:55:26.788Z,69.74
2017-07-16T14:57:54.180Z,69.43
2017-07-16T15:00:21.603Z,69.76
2017-07-16T15:02:48.995Z,69.65
2017-07-16T15:05:16.412Z,69.66
2017-07-16T15:07:43.841Z,69.61
2017-07-16T15:10:11.244Z,69.37
2017-07-16T15:12:38.643Z,68.83
2017-07-16T15:15:06.045Z,68.77
2017-07-16T15:17:33.439Z,68.61
2017-07-16T15:20:00.864Z,68.40
2017-07-16T15:22:28.482Z,68.73
2017-07-16T15:24:55.898Z,68.82
2017-07-16T15:27:23.299Z,68.73
2017-07-16T15:29:50.699Z,68.45
2017-07-16T15:32:18.324Z,68.19
2017-07-16T15:34:45.720Z,67.73
2017-07-16T15:37:13.127Z,67.79
2017-07-16T15:39:40.523Z,67.92
2017-07-16T15:42:07.937Z,68.01
2017-07-16T15:44:35.323Z,67.63
2017-07-16T15:47:02.727Z,67.50
2017-07-16T15:49:30.123Z,67.52
2017-07-16T15:51:57.542Z,67.70
2017-07-16T15:54:24.941Z,67.96
2017-07-16T15:56:52.336Z,68.25
2017-07-16T15:59:19.737Z,68.39
2017-07-16T16:01:47.158Z,68.55
2017-07-16T16:04:14.543Z,68.34
2017-07-16T16:06:41.945Z,68.37
2017-07-16T16:09:09.367Z,69.00
2017-07-16T16:11:36.782Z,69.60
2017-07-16T16:14:04.172Z,69.48
2017-07-16T16:16:31.580Z,69.49
2017-07-16T16:18:58.980Z,69.23
2017-07-16T16:21:26.602Z,69.23
2017-07-16T16:23:54.000Z,69.75
2017-07-16T16:26:21.408Z,70.27
2017-07-16T16:28:48.809Z,70.24
2017-07-16T16:31:16.211Z,70.07
2017-07-16T16:33:43.609Z,69.93
2017-07-16T16:36:11.012Z,70.37
2017-07-16T16:38:38.428Z,70.86
2017-07-16T16:41:05.819Z,70.58
2017-07-16T16:43:33.222Z,70.25
2017-07-16T16:46:00.644Z,70.38
2017-07-16T16:48:28.049Z,69.95
2017-07-16T16:50:55.456Z,70.31
2017-07-16T16:53:22.858Z,70.58
2017-07-16T16:55:50.258Z,70.56
2017-07-16T16:58:17.683Z,70.75
2017-07-16T17:00:45.091Z,70.62
2017-07-16T17:03:12.497Z,70.69
2017-07-16T17:05:39.896Z,71.46
2017-07-16T17:08:07.299Z,71.87
2017-07-16T17:10:34.695Z,71.88
2017-07-16T17:13:02.101Z,71.70
2017-07-16T17:15:29.507Z,71.23
2017-07-16T17:17:56.907Z,71.42
2017-07-16T17:20:24.304Z,71.55
2017-07-16T17:22:51.715Z,71.12
2017-07-16T17:25:19.149Z,71.38
2017-07-16T17:27:46.537Z,71.59
2017-07-16T17:30:13.938Z,71.71
2017-07-16T17:32:41.356Z,71.71
2017-07-16T17:35:08.753Z,71.32
2017-07-16T17:37:36.156Z,71.38
2017-07-16T17:40:03.559Z,71.62
2017-07-16T17:42:30.968Z,72.58
2017-07-16T17:44:58.376Z,72.59
2017-07-16T17:47:25.795Z,73.19
2017-07-16T17:49:53.219Z,74.59
2017-07-16T17:52:20.828Z,75.12
2017-07-16T17:54:48.236Z,75.35
2017-07-16T17:57:15.652Z,75.59
2017-07-16T17:59:43.047Z,75.59
2017-07-16T18:02:10.443Z,76.12
2017-07-16T18:04:37.849Z,75.38
2017-07-16T18:07:05.252Z,75.97
2017-07-16T18:09:32.660Z,74.97
2017-07-16T18:12:00.052Z,75.04
2017-07-16T18:14:27.460Z,74.95
2017-07-16T18:16:54.856Z,75.24
2017-07-16T18:19:22.289Z,75.41
2017-07-16T18:21:49.692Z,75.83
2017-07-16T18:24:17.083Z,76.71
2017-07-16T18:26:44.483Z,76.51
2017-07-16T18:29:11.905Z,77.51
2017-07-16T18:31:39.309Z,78.45
2017-07-16T18:34:06.716Z,78.65
2017-07-16T18:36:34.116Z,79.38
2017-07-16T18:39:01.518Z,80.08
2017-07-16T18:41:28.922Z,81.01
2017-07-16T18:43:56.368Z,80.88
2017-07-16T18:46:23.750Z,80.98
2017-07-16T18:48:51.147Z,81.17
2017-07-16T18:51:18.556Z,81.29
2017-07-16T18:53:45.948Z,81.28
2017-07-16T18:56:13.339Z,82.03
2017-07-16T18:58:40.786Z,82.13
2017-07-16T19:01:08.387Z,82.28
2017-07-16T19:03:35.799Z,81.76
2017-07-16T19:06:03.187Z,82.04
2017-07-16T19:08:30.583Z,81.61
2017-07-16T19:10:57.988Z,82.31
2017-07-16T19:13:25.379Z,81.88
2017-07-16T19:15:52.771Z,81.69
2017-07-16T19:18:20.160Z,81.48
2017-07-16T19:20:47.587Z,81.31
2017-07-16T19:23:14.992Z,80.77
2017-07-16T19:25:42.409Z,80.06
2017-07-16T19:28:09.799Z,80.17
2017-07-16T19:30:37.199Z,80.19
2017-07-16T19:33:04.588Z,80.17
2017-07-16T19:35:32.003Z,80.59
2017-07-16T19:37:59.392Z,81.11
2017-07-16T19:40:26.844Z,81.16
2017-07-16T19:42:54.239Z,80.88
2017-07-16T19:45:21.632Z,80.76
2017-07-16T19:47:49.027Z,81.12
2017-07-16T19:50:16.423Z,80.09
2017-07-16T19:52:43.823Z,79.63
2017-07-16T19:55:11.224Z,79.62
2017-07-16T19:57:38.819Z,78.71
2017-07-16T20:00:06.216Z,78.21
2017-07-16T20:02:33.613Z,77.57
2017-07-16T20:05:01.011Z,77.25
2017-07-16T20:07:28.404Z,76.85
2017-07-16T20:09:56.015Z,77.12
2017-07-16T20:12:23.414Z,76.60
2017-07-16T20:14:50.803Z,76.00
2017-07-16T20:17:18.204Z,75.72
2017-07-16T20:19:45.595Z,75.65
2017-07-16T20:22:12.994Z,75.07
2017-07-16T20:24:40.392Z,74.75
2017-07-16T20:27:07.783Z,74.22
2017-07-16T20:29:35.176Z,74.40
2017-07-16T20:32:02.603Z,73.90
2017-07-16T20:34:29.997Z,73.87
2017-07-16T20:36:57.384Z,73.99
2017-07-16T20:39:24.772Z,73.71
2017-07-16T20:41:52.191Z,73.10
2017-07-16T20:44:20.527Z,72.91
2017-07-16T20:46:47.931Z,72.51
2017-07-16T20:49:15.315Z,72.75
2017-07-16T20:51:51.822Z,72.19
2017-07-16T20:54:19.192Z,72.59
2017-07-16T20:56:46.592Z,72.20
2017-07-16T20:59:13.994Z,72.08
2017-07-16T21:01:41.401Z,71.93
2017-07-16T21:04:08.798Z,71.86
2017-07-16T21:06:36.192Z,72.02
2017-07-16T21:09:03.593Z,72.02
2017-07-16T21:11:30.984Z,72.37
2017-07-16T21:13:58.375Z,72.54
2017-07-16T21:16:25.772Z,72.62
2017-07-16T21:18:53.155Z,72.63
2017-07-16T21:21:20.553Z,72.67
2017-07-16T21:23:47.935Z,72.80
2017-07-16T21:26:15.334Z,72.70
2017-07-16T21:28:42.732Z,72.79
2017-07-16T21:31:10.128Z,73.01
2017-07-16T21:33:37.511Z,72.53
2017-07-16T21:36:04.911Z,72.75
2017-07-16T21:38:32.295Z,72.66
2017-07-16T21:40:59.767Z,72.72
2017-07-16T21:43:27.160Z,72.81
2017-07-16T21:45:54.548Z,72.63
2017-07-16T21:48:22.152Z,72.57
2017-07-16T21:50:49.547Z,72.88
2017-07-16T21:53:16.956Z,72.98
2017-07-16T21:55:44.340Z,73.15
2017-07-16T21:58:11.735Z,74.15
2017-07-16T22:00:39.145Z,74.13
2017-07-16T22:03:06.527Z,74.62
2017-07-16T22:05:33.928Z,74.35
2017-07-16T22:08:01.331Z,74.59
2017-07-16T22:10:28.711Z,74.08
2017-07-16T22:12:56.119Z,74.03
2017-07-16T22:15:23.511Z,73.89
2017-07-16T22:17:51.014Z,74.62
2017-07-16T22:20:18.359Z,73.90
2017-07-16T22:22:45.760Z,74.26
2017-07-16T22:25:13.151Z,74.17
2017-07-16T22:27:40.552Z,74.22
2017-07-16T22:30:08.152Z,74.37
2017-07-16T22:32:35.551Z,74.14
2017-07-16T22:35:02.942Z,73.82
2017-07-16T22:37:30.350Z,73.76
2017-07-16T22:39:57.750Z,74.53
2017-07-16T22:42:25.148Z,74.93
2017-07-16T22:44:52.548Z,75.15
2017-07-16T22:47:19.939Z,75.39
2017-07-16T22:49:47.335Z,75.13
2017-07-16T22:52:14.734Z,74.91
2017-07-16T22:54:42.140Z,74.75
2017-07-16T22:57:09.532Z,75.09
2017-07-16T22:59:36.931Z,74.91
2017-07-16T23:02:04.326Z,74.31
2017-07-16T23:04:31.723Z,75.11
2017-07-16T23:06:59.118Z,75.40
2017-07-16T23:09:26.530Z,76.08
2017-07-16T23:11:53.932Z,76.61
2017-07-16T23:14:21.328Z,77.06
2017-07-16T23:16:48.735Z,77.04
2017-07-16T23:19:16.140Z,77.43
2017-07-16T23:21:43.534Z,77.92
2017-07-16T23:24:10.936Z,77.40
2017-07-16T23:26:38.335Z,77.65
2017-07-16T23:29:05.743Z,77.23
2017-07-16T23:31:33.135Z,77.48
2017-07-16T23:34:00.553Z,77.83
2017-07-16T23:36:27.952Z,78.05
2017-07-16T23:38:55.359Z,78.48
2017-07-16T23:41:22.752Z,78.51
2017-07-16T23:43:50.168Z,78.03
2017-07-16T23:46:17.564Z,77.12
2017-07-16T23:48:44.964Z,76.38
2017-07-16T23:51:12.360Z,76.48
2017-07-16T23:53:39.763Z,76.27
2017-07-16T23:56:07.161Z,76.83
2017-07-16T23:58:34.564Z,76.97
